ADDS METAR Data INFO
IDs: Format: Raw Decoded Include TAF

Data at: 1313 UTC 19 Jul 2018

KGWO 191253Z AUTO 20003KT 10SM CLR 25/24 A2995 RMK AO2 SLP141 T02500239
KGWO 191153Z AUTO 00000KT 7SM CLR 24/23 A2994 RMK AO2 SLP138 T02440233 10244 20233 53010
KGWO 191053Z AUTO 00000KT 10SM CLR 24/23 A2993 RMK AO2 SLP134 T02440233
KGWO 190953Z AUTO 17004KT 10SM SCT110 24/23 A2992 RMK AO2 SLP131 T02390233
KGWO 190853Z AUTO 00000KT 8SM CLR 24/23 A2992 RMK AO2 SLP128 T02390233 56003
KGWO 190753Z AUTO 00000KT 9SM CLR 24/23 A2992 RMK AO2 SLP127 T02390228
KGWO 190653Z AUTO 00000KT 8SM BKN110 24/23 A2992 RMK AO2 SLP128 T02390228
KGWO 190553Z AUTO 00000KT 10SM CLR 24/23 A2993 RMK AO2 SLP131 T02440233 10272 20239 403390233 58006
KGWO 190453Z AUTO 00000KT 10SM CLR 24/23 A2994 RMK AO2 SLP135 T02440233
KGWO 190423Z AUTO 00000KT 10SM SCT007 25/23 A2994 RMK AO2 T02500233
KGWO 190353Z AUTO 21003KT 10SM OVC007 25/24 A2994 RMK AO2 SLP137 T02500239
KGWO 190253Z AUTO 20005KT 10SM OVC007 26/24 A2994 RMK AO2 SLP138 T02560239 53008
KGWO 190229Z AUTO 18004KT 10SM BKN007 26/24 A2994 RMK AO2 T02560239
KGWO 190204Z AUTO 18004KT 10SM FEW009 26/23 A2993 RMK AO2 T02560233
KGWO 190153Z AUTO 18004KT 10SM CLR 26/23 A2993 RMK AO2 SLP131 T02560233
KGWO 190053Z AUTO 20004KT 10SM CLR 26/23 A2992 RMK AO2 SLP128 T02610233
KGWO 182353Z AUTO 19005KT 10SM CLR 27/24 A2992 RMK AO2 LTG DSNT NE SLP130 T02720239 10339 20272 55004
KGWO 182253Z AUTO 00000KT 10SM SCT032 SCT047 BKN075 28/22 A2991 RMK AO2 TSE00 SLP128 T02780222
KGWO 182236Z AUTO 00000KT 10SM BKN032 OVC049 28/22 A2993 RMK AO2 TSE00 T02780222
KGWO 182206Z AUTO 16003KT 10SM VCTS FEW032 SCT040 SCT055 28/23 A2993 RMK AO2 LTG DSNT E TSE00 T02830233
KGWO 182153Z AUTO 00000KT 10SM TS BKN032 BKN041 BKN055 28/23 A2993 RMK AO2 LTG DSNT E AND S TSB45 SLP134 T02830233
KGWO 182151Z AUTO 00000KT 10SM TS BKN032 BKN041 BKN055 28/23 A2993 RMK AO2 LTG DSNT E AND S TSB45
KGWO 182136Z AUTO 21004KT 10SM VCTS BKN032 28/23 A2993 RMK AO2 LTG DSNT E-S T02780233
KGWO 182103Z AUTO 22005KT 10SM CLR 28/23 A2992 RMK AO2 LTG DSNT E-SW T02830228
KGWO 182053Z AUTO VRB05KT 10SM VCTS CLR 29/24 A2991 RMK AO2 LTG DSNT E-SW SLP126 T02940239 56015
KGWO 182036Z AUTO VRB04KT 10SM VCTS CLR 31/25 A2991 RMK AO2 LTG DSNT ALQDS T03060250
KGWO 181953Z AUTO 00000KT 10SM FEW039 33/24 A2991 RMK AO2 LTG DSNT W SLP126 T03280244
KGWO 181853Z AUTO VRB03KT 10SM CLR 33/24 A2995 RMK AO2 SLP137 T03330244
KGWO 181753Z AUTO 36004KT 10SM CLR 33/24 A2995 RMK AO2 SLP140 T03330239 10333 20244 58015
KGWO 181653Z AUTO VRB03KT 10SM FEW023 32/24 A2997 RMK AO2 SLP146 T03170244
KGWO 181619Z AUTO VRB03KT 10SM FEW014 31/25 A2999 RMK AO2 T03110250
KGWO 181553Z AUTO 00000KT 10SM BKN013 30/25 A2999 RMK AO2 SLP154 T03000250
KGWO 181533Z AUTO 00000KT 10SM SCT011 29/24 A3000 RMK AO2 T02890244
KGWO 181520Z AUTO 03003KT 10SM BKN010 BKN014 29/25 A3000 RMK AO2 CIG 009V013 T02890250
KGWO 181453Z AUTO 35003KT 10SM SCT009 28/25 A3000 RMK AO2 SLP156 T02830250 53002
KGWO 181353Z AUTO 00000KT 9SM FEW006 28/24 A3000 RMK AO2 SLP155 T02780244
KGWO 181336Z AUTO 00000KT 10SM SCT006 27/24 A2999 RMK AO2 T02720244
KGWO 181329Z AUTO 00000KT 10SM BKN006 27/24 A2999 RMK AO2 T02670244
KGWO 181312Z AUTO 00000KT 10SM SCT004 26/24 A2999 RMK AO2 T02610244
KGWO 181253Z AUTO 00000KT 8SM BKN004 26/24 A3000 RMK AO2 SLP155 T02560239
KGWO 181218Z AUTO 00000KT 10SM BKN004 25/23 A3000 RMK AO2 T02500233
KGWO 181205Z AUTO 00000KT 10SM FEW004 24/23 A2999 RMK AO2 T02440233
KGWO 181153Z AUTO 00000KT 10SM CLR 24/23 A2999 RMK AO2 SLP154 T02440233 10244 20233 53004
KGWO 181053Z AUTO 00000KT 10SM FEW006 24/23 A2998 RMK AO2 SLP149 T02390228
KGWO 181039Z AUTO 19003KT 10SM SCT005 SCT120 24/23 A2997 RMK AO2 T02390228
KGWO 180953Z AUTO 00000KT 10SM CLR 24/23 A2997 RMK AO2 SLP148 T02390228
KGWO 180853Z AUTO 00000KT 10SM FEW010 24/23 A2998 RMK AO2 SLP149 T02390228 55002
KGWO 180820Z AUTO 19003KT 10SM SCT011 24/23 A2997 RMK AO2 T02390228
KGWO 180811Z AUTO 19003KT 9SM BKN011 23/23 A2997 RMK AO2 T02330228
KGWO 180753Z AUTO 00000KT 9SM CLR 24/23 A2997 RMK AO2 SLP147 T02390228
KGWO 180653Z AUTO 00000KT 10SM CLR 24/23 A2997 RMK AO2 SLP145 T02390228
KGWO 180553Z AUTO 00000KT 10SM CLR 24/23 A2998 RMK AO2 SLP152 T02390233 10267 20239 403280228 58008
KGWO 180453Z AUTO 00000KT 10SM CLR 24/23 A3000 RMK AO2 SLP156 T02440233
KGWO 180353Z AUTO 22003KT 10SM CLR 24/24 A3000 RMK AO2 SLP158 T02440239
KGWO 180253Z AUTO 20003KT 10SM CLR 25/23 A3001 RMK AO2 SLP160 T02500233 53014
KGWO 180153Z AUTO 22003KT 10SM CLR 26/24 A2997 RMK AO2 SLP148 T02560239